Time;durP1;ratioP1;P1;durP2;ratioP2;P2;SDS_P1;SDS_P2;PMS_P1;PMS_P2;Temp;Humidity;BMP_temperature;BMP_pressure;BME280_temperature;BME280_humidity;BME280_pressure;Samples;Min_cycle;Max_cycle;Signal;HPM_P1;HPM_P2
2022/06/16 00:02:15;;;;;;;11.35;5.97;;;;;;;13.61;93.35;100141.59;5051700;28;20491;-76
2022/06/16 00:04:46;;;;;;;10.88;5.63;;;;;;;13.65;93.24;100139.53;5051668;28;20064;-76
2022/06/16 00:07:15;;;;;;;11.20;5.78;;;;;;;13.62;93.54;100140.63;5049995;28;20049;-77
2022/06/16 00:09:42;;;;;;;10.50;5.68;;;;;;;13.61;93.74;100141.59;5051626;28;20044;-76
2022/06/16 00:12:11;;;;;;;13.07;5.57;;;;;;;13.68;93.30;100144.78;5051479;28;20075;-76
2022/06/16 00:14:39;;;;;;;12.65;5.85;;;;;;;13.72;92.88;100152.59;5051475;28;20053;-77
2022/06/16 00:17:06;;;;;;;9.98;5.22;;;;;;;13.67;93.25;100148.47;5051417;28;20049;-76
2022/06/16 00:19:35;;;;;;;12.65;5.47;;;;;;;13.66;93.13;100146.69;5051150;28;20045;-76
2022/06/16 00:22:02;;;;;;;11.27;5.75;;;;;;;13.72;92.97;100135.47;5050987;28;20049;-77
2022/06/16 00:24:30;;;;;;;13.50;5.78;;;;;;;13.57;93.83;100140.91;5051136;28;20044;-76
2022/06/16 00:26:58;;;;;;;11.52;5.68;;;;;;;13.54;93.90;100142.94;5051270;28;20114;-77
2022/06/16 00:29:27;;;;;;;10.77;5.20;;;;;;;13.45;93.95;100147.13;5051271;28;20041;-76
2022/06/16 00:31:54;;;;;;;10.23;5.07;;;;;;;13.32;94.27;100142.44;5051425;27;20040;-76
2022/06/16 00:34:22;;;;;;;10.50;5.40;;;;;;;13.30;94.63;100149.81;5051107;28;20055;-77
2022/06/16 00:36:49;;;;;;;11.90;5.82;;;;;;;13.32;94.74;100142.44;5050840;27;20049;-77
2022/06/16 00:39:17;;;;;;;9.43;5.20;;;;;;;13.37;94.57;100146.69;5050827;28;20041;-76
2022/06/16 00:41:44;;;;;;;12.10;5.82;;;;;;;13.40;94.68;100143.78;5051075;28;20056;-76
2022/06/16 00:44:17;;;;;;;10.68;5.68;;;;;;;13.40;94.61;100146.50;5051050;27;20449;-77
2022/06/16 00:46:46;;;;;;;9.77;5.22;;;;;;;13.36;94.47;100153.09;5052503;28;20496;-76
2022/06/16 00:49:15;;;;;;;11.38;5.80;;;;;;;13.36;94.73;100147.69;5050776;28;20045;-77
2022/06/16 00:51:45;;;;;;;11.18;5.90;;;;;;;13.22;94.81;100141.25;5050545;28;20040;-76
2022/06/16 00:54:17;;;;;;;11.15;5.85;;;;;;;13.24;95.33;100144.75;5051928;28;20067;-76
2022/06/16 00:56:45;;;;;;;11.85;6.18;;;;;;;13.18;95.75;100150.56;5050940;27;20048;-76
2022/06/16 00:59:12;;;;;;;11.27;6.03;;;;;;;13.20;95.34;100156.75;5056444;27;20109;-76
2022/06/16 01:01:41;;;;;;;11.73;5.65;;;;;;;13.30;94.97;100148.91;5070382;28;20045;-77
2022/06/16 01:06:55;;;;;;;;;;;;;;;13.26;94.83;100144.66;5071301;28;20048;-76
2022/06/16 01:09:31;;;;;;;14.98;6.00;;;;;;;13.36;94.51;100144.97;5070643;28;19920;-77
2022/06/16 01:15:11;;;;;;;12.52;6.30;;;;;;;13.09;95.65;100148.44;5070472;28;20052;-76
2022/06/16 01:17:46;;;;;;;11.40;6.40;;;;;;;13.17;95.04;100144.28;5070300;28;20048;-76
2022/06/16 01:20:22;;;;;;;15.37;6.47;;;;;;;13.27;94.42;100143.69;5070678;28;20483;-75
2022/06/16 01:23:29;;;;;;;13.57;6.25;;;;;;;13.19;95.16;100141.44;5071888;28;20051;-76
2022/06/16 01:25:59;;;;;;;;;;;;;;;13.10;95.61;100147.47;5070759;28;20045;-76
2022/06/16 01:28:30;;;;;;;12.55;6.40;;;;;;;12.97;96.52;100148.22;5070410;27;20011;-75
2022/06/16 01:31:04;;;;;;;10.23;5.97;;;;;;;13.01;96.65;100146.19;5071172;28;20096;-76
2022/06/16 01:33:39;;;;;;;12.50;6.13;;;;;;;13.02;96.17;100146.09;5071655;28;20048;-76
2022/06/16 01:36:12;;;;;;;9.77;6.00;;;;;;;12.98;95.86;100147.25;5071490;28;20048;-78
2022/06/16 01:38:45;;;;;;;12.95;6.78;;;;;;;12.89;96.64;100145.13;5071110;28;20069;-76
2022/06/16 01:41:20;;;;;;;11.32;6.35;;;;;;;12.92;96.03;100144.94;5065927;28;20052;-76
2022/06/16 01:43:53;;;;;;;12.75;6.88;;;;;;;12.98;95.91;100138.22;5070925;27;20044;-76
2022/06/16 01:46:26;;;;;;;15.18;7.40;;;;;;;12.90;96.14;100142.28;5071173;28;20049;-77
2022/06/16 01:48:56;;;;;;;13.32;6.60;;;;;;;12.94;96.29;100148.41;5070844;28;20486;-76
2022/06/16 01:51:29;;;;;;;11.57;7.00;;;;;;;12.83;95.82;100145.47;5071536;28;20121;-77
2022/06/16 01:53:59;;;;;;;13.18;7.05;;;;;;;12.90;95.38;100138.72;5070035;28;20052;-76
2022/06/16 01:56:33;;;;;;;13.27;7.25;;;;;;;12.79;95.46;100146.63;5070390;28;20048;-77
2022/06/16 01:59:02;;;;;;;12.05;6.43;;;;;;;12.87;96.44;100147.91;5066766;28;20044;-77
2022/06/16 02:01:35;;;;;;;12.85;7.88;;;;;;;12.90;96.12;100146.88;5051320;28;20049;-76
2022/06/16 02:04:07;;;;;;;13.02;6.88;;;;;;;12.86;96.56;100145.31;5051475;28;20049;-77
2022/06/16 02:06:36;;;;;;;12.13;6.57;;;;;;;12.76;97.21;100142.28;5049343;28;20057;-76
2022/06/16 02:09:08;;;;;;;14.90;6.82;;;;;;;12.73;97.71;100150.59;5049995;28;20052;-76
2022/06/16 02:11:36;;;;;;;12.95;6.80;;;;;;;12.64;97.70;100148.41;5051046;28;20381;-77
2022/06/16 02:14:10;;;;;;;12.40;6.72;;;;;;;12.73;97.62;100145.19;5049668;28;20048;-76
2022/06/16 02:16:40;;;;;;;13.65;7.32;;;;;;;12.78;97.51;100145.78;5049948;28;20067;-76
2022/06/16 02:19:12;;;;;;;11.68;7.05;;;;;;;12.69;97.83;100155.31;5049229;28;20045;-76
2022/06/16 02:21:42;;;;;;;11.65;7.30;;;;;;;12.73;97.76;100153.31;5050489;28;20049;-76
2022/06/16 02:24:12;;;;;;;12.20;7.10;;;;;;;12.67;98.22;100153.69;5049706;28;20105;-76
2022/06/16 02:26:39;;;;;;;12.38;6.78;;;;;;;12.69;98.09;100152.59;5049536;28;20052;-77
2022/06/16 02:29:23;;;;;;;14.52;7.28;;;;;;;12.69;98.04;100149.91;5049568;28;20048;-76
2022/06/16 02:31:59;;;;;;;12.93;6.95;;;;;;;12.72;97.58;100152.41;5052573;27;20045;-76
2022/06/16 02:34:34;;;;;;;15.50;7.32;;;;;;;12.55;98.75;100153.44;5053573;28;20049;-76
2022/06/16 02:37:11;;;;;;;14.57;7.47;;;;;;;12.52;99.63;100158.19;5053958;28;20045;-76
2022/06/16 02:39:57;;;;;;;13.50;7.60;;;;;;;12.57;99.31;100161.47;5056032;28;20102;-76
2022/06/16 02:42:30;;;;;;;12.63;7.38;;;;;;;12.64;99.29;100161.97;5073823;28;20044;-76
2022/06/16 02:45:03;;;;;;;14.38;7.93;;;;;;;12.69;98.47;100159.88;5073687;28;20051;-76
2022/06/16 02:47:48;;;;;;;14.27;7.00;;;;;;;12.66;98.76;100160.94;5072539;28;20108;-76
2022/06/16 02:50:24;;;;;;;17.00;8.55;;;;;;;12.60;99.67;100161.28;5073936;27;20045;-76
2022/06/16 02:52:56;;;;;;;17.35;10.25;;;;;;;12.58;100.00;100166.78;5073889;28;20145;-76
2022/06/16 02:55:28;;;;;;;12.90;7.55;;;;;;;12.64;100.00;100164.69;5072743;28;20044;-77
2022/06/16 02:57:57;;;;;;;12.70;7.35;;;;;;;12.67;100.00;100162.66;5072957;28;20051;-76
2022/06/16 03:00:28;;;;;;;12.60;7.45;;;;;;;12.79;99.35;100165.59;5056656;28;20048;-76
2022/06/16 03:02:57;;;;;;;12.90;7.47;;;;;;;12.65;99.76;100161.88;5053331;28;20049;-76
2022/06/16 03:05:25;;;;;;;15.20;7.63;;;;;;;12.70;98.90;100162.47;5052377;28;20060;-77
2022/06/16 03:07:52;;;;;;;10.73;6.70;;;;;;;12.76;98.38;100166.66;5052252;28;20088;-78
2022/06/16 03:13:01;;;;;;;13.45;7.45;;;;;;;12.77;99.11;100163.00;5052680;28;20105;-78
2022/06/16 03:15:29;;;;;;;12.05;7.13;;;;;;;12.78;99.12;100161.13;5051922;28;20072;-78
2022/06/16 03:17:58;;;;;;;12.60;7.13;;;;;;;12.79;99.08;100162.88;5052385;28;20048;-78
2022/06/16 03:20:25;;;;;;;12.65;7.20;;;;;;;12.75;99.30;100168.50;5052143;28;20090;-77
2022/06/16 03:22:53;;;;;;;11.45;7.10;;;;;;;12.94;98.41;100164.69;5052149;28;20045;-77
2022/06/16 03:25:20;;;;;;;14.07;7.65;;;;;;;12.87;99.13;100166.88;5052086;28;20045;-77
2022/06/16 03:27:48;;;;;;;14.20;8.02;;;;;;;12.77;100.00;100162.09;5052237;28;20493;-77
2022/06/16 03:30:15;;;;;;;14.68;7.82;;;;;;;12.88;99.36;100159.63;5051796;28;20041;-77
2022/06/16 03:32:43;;;;;;;16.55;7.97;;;;;;;12.89;99.50;100164.94;5052056;28;20487;-76
2022/06/16 03:35:12;;;;;;;13.07;7.65;;;;;;;13.01;99.09;100165.16;5052035;28;20115;-77
2022/06/16 03:37:41;;;;;;;11.63;7.63;;;;;;;13.08;99.04;100165.66;5051865;28;20491;-76
2022/06/16 03:40:11;;;;;;;11.70;7.25;;;;;;;13.16;98.30;100168.75;5058409;28;20115;-77
2022/06/16 03:42:38;;;;;;;12.90;7.78;;;;;;;13.24;98.27;100165.59;5071904;28;20044;-77
2022/06/16 03:45:07;;;;;;;12.50;7.32;;;;;;;13.29;97.94;100164.34;5071510;28;20040;-77
2022/06/16 03:47:35;;;;;;;12.57;7.40;;;;;;;13.31;97.75;100165.13;5071853;28;20068;-77
2022/06/16 03:50:02;;;;;;;15.55;7.97;;;;;;;13.34;98.04;100161.31;5071874;28;20100;-77
2022/06/16 03:52:31;;;;;;;12.77;7.47;;;;;;;13.36;98.65;100169.38;5071829;28;20044;-77
2022/06/16 03:54:59;;;;;;;13.82;7.85;;;;;;;13.38;98.07;100162.88;5071686;28;20107;-77
2022/06/16 03:57:26;;;;;;;12.38;8.20;;;;;;;13.46;98.22;100163.31;5071689;28;20041;-77
2022/06/16 03:59:54;;;;;;;16.63;7.93;;;;;;;13.52;97.79;100164.75;5059637;28;20101;-78
2022/06/16 04:02:21;;;;;;;13.32;7.53;;;;;;;13.59;97.40;100166.09;5051540;28;20045;-77
2022/06/16 04:04:49;;;;;;;13.05;7.90;;;;;;;13.63;98.29;100166.78;5051556;28;20120;-78
2022/06/16 04:07:17;;;;;;;15.25;7.93;;;;;;;13.68;98.48;100159.22;5051344;28;20049;-77
2022/06/16 04:09:46;;;;;;;13.43;7.65;;;;;;;13.72;98.42;100160.75;5051589;28;20068;-77
2022/06/16 04:12:13;;;;;;;13.93;7.82;;;;;;;13.62;99.19;100160.47;5051461;28;20045;-76
2022/06/16 04:14:41;;;;;;;14.30;7.50;;;;;;;13.79;98.90;100163.94;5051099;28;20049;-77
2022/06/16 04:17:09;;;;;;;13.93;7.93;;;;;;;13.85;99.17;100155.41;5051276;28;20067;-77
2022/06/16 04:20:11;;;;;;;14.57;7.72;;;;;;;13.91;99.40;100148.72;5050175;27;20399;-77
2022/06/16 04:22:24;;;;;;;12.80;8.02;;;;;;;13.91;99.55;100154.16;5051770;28;20041;-78
2022/06/16 04:24:53;;;;;;;14.20;8.30;;;;;;;13.95;100.00;100152.97;5051241;28;20071;-78
2022/06/16 04:27:21;;;;;;;12.98;7.88;;;;;;;14.11;99.67;100144.69;5051150;28;20125;-77
2022/06/16 04:29:48;;;;;;;13.73;7.97;;;;;;;14.25;99.20;100154.59;5050892;28;20105;-78
2022/06/16 04:32:16;;;;;;;15.95;8.05;;;;;;;14.24;99.30;100157.44;5051189;28;20075;-78
2022/06/16 04:34:44;;;;;;;15.45;8.88;;;;;;;14.27;100.00;100159.94;5051080;28;20547;-77
2022/06/16 04:37:12;;;;;;;14.15;8.23;;;;;;;14.46;99.17;100144.13;5051223;27;20049;-77
2022/06/16 04:39:39;;;;;;;13.60;7.82;;;;;;;14.55;98.91;100144.50;5053268;28;20132;-76
2022/06/16 04:42:08;;;;;;;13.40;7.65;;;;;;;14.66;96.92;100144.63;5070950;28;20044;-77
2022/06/16 04:44:37;;;;;;;14.82;7.50;;;;;;;14.72;97.33;100141.53;5070451;28;20411;-77
2022/06/16 04:47:06;;;;;;;12.25;7.05;;;;;;;14.73;97.47;100145.97;5070778;28;20511;-77
2022/06/16 04:49:33;;;;;;;14.35;6.90;;;;;;;14.83;96.57;100148.06;5070766;28;20052;-77
2022/06/16 04:52:01;;;;;;;12.48;6.63;;;;;;;14.89;96.82;100144.91;5070857;28;20052;-77
2022/06/16 04:54:29;;;;;;;17.58;7.13;;;;;;;14.91;97.75;100149.28;5070056;28;20045;-77
2022/06/16 04:56:56;;;;;;;13.20;6.75;;;;;;;15.07;96.06;100140.91;5070512;28;20048;-77
2022/06/16 04:59:25;;;;;;;13.48;7.05;;;;;;;15.15;95.77;100140.38;5063307;28;20041;-78
2022/06/16 05:01:55;;;;;;;14.10;6.70;;;;;;;15.21;95.90;100149.94;5050667;28;20052;-78
2022/06/16 05:04:22;;;;;;;14.07;6.90;;;;;;;15.21;94.93;100147.22;5050414;28;20045;-77
2022/06/16 05:06:50;;;;;;;13.65;7.00;;;;;;;15.09;94.41;100148.09;5050459;28;20110;-77
2022/06/16 05:09:17;;;;;;;14.00;7.20;;;;;;;15.18;93.63;100150.16;5050831;28;20395;-77
2022/06/16 05:11:45;;;;;;;12.52;6.85;;;;;;;15.30;93.25;100148.41;5050044;28;20040;-77
2022/06/16 05:14:12;;;;;;;13.13;6.75;;;;;;;15.36;92.99;100153.41;5050503;28;20045;-77
2022/06/16 05:16:41;;;;;;;11.70;6.88;;;;;;;15.36;92.85;100147.97;5050328;28;20052;-77
2022/06/16 05:19:09;;;;;;;14.00;6.80;;;;;;;15.44;91.92;100145.56;5050358;28;20052;-77
2022/06/16 05:21:37;;;;;;;13.77;6.85;;;;;;;15.55;92.23;100146.66;5050392;28;20041;-77
2022/06/16 05:24:05;;;;;;;11.93;6.45;;;;;;;15.63;92.27;100134.22;5050349;28;20384;-77
2022/06/16 05:26:33;;;;;;;11.82;6.03;;;;;;;15.63;92.44;100136.94;5050010;28;20049;-77
2022/06/16 05:29:01;;;;;;;17.67;6.40;;;;;;;15.79;91.66;100141.28;5050299;28;20048;-77
2022/06/16 05:31:28;;;;;;;13.52;6.28;;;;;;;16.14;90.66;100132.38;5050306;28;20052;-78
2022/06/16 05:33:57;;;;;;;11.95;6.20;;;;;;;16.28;90.23;100135.88;5050251;28;20044;-77
2022/06/16 05:36:25;;;;;;;15.07;6.10;;;;;;;16.51;89.14;100129.53;5050141;28;20097;-77
2022/06/16 05:38:53;;;;;;;13.50;6.30;;;;;;;16.70;88.22;100128.13;5049783;28;20143;-77
2022/06/16 05:41:21;;;;;;;10.93;5.78;;;;;;;16.79;88.27;100124.69;5066125;28;20094;-77
2022/06/16 05:43:49;;;;;;;9.93;5.05;;;;;;;16.71;86.08;100124.41;5070048;28;20052;-77
2022/06/16 05:46:18;;;;;;;11.02;5.18;;;;;;;16.73;85.90;100122.44;5070014;28;20049;-77
2022/06/16 05:48:46;;;;;;;11.02;4.82;;;;;;;16.84;85.45;100123.44;5069930;28;20044;-78
2022/06/16 05:51:16;;;;;;;16.60;4.93;;;;;;;16.90;84.59;100121.13;5069934;28;20494;-77
2022/06/16 05:53:44;;;;;;;17.65;5.40;;;;;;;16.95;84.71;100110.72;5069878;28;20041;-78
2022/06/16 05:56:12;;;;;;;13.57;5.15;;;;;;;16.98;84.73;100114.22;5069736;28;20044;-77
2022/06/16 05:58:40;;;;;;;10.75;5.07;;;;;;;16.71;86.17;100118.06;5068633;28;20065;-78
2022/06/16 06:01:07;;;;;;;12.10;4.78;;;;;;;16.78;86.08;100122.09;5049898;28;20053;-78
2022/06/16 06:03:35;;;;;;;9.88;4.57;;;;;;;16.84;86.18;100120.72;5049730;28;20045;-78
2022/06/16 06:06:02;;;;;;;11.85;4.97;;;;;;;16.83;85.26;100116.25;5051251;28;20045;-77
2022/06/16 06:16:49;;;;;;;8.25;4.07;;;;;;;17.07;82.27;100122.53;5054764;28;20041;-78
2022/06/16 06:19:26;;;;;;;7.80;4.35;;;;;;;17.15;82.81;100121.94;5053334;27;20106;-77
2022/06/16 06:22:00;;;;;;;11.07;4.50;;;;;;;17.30;81.98;100116.25;5053662;28;20503;-77
2022/06/16 06:24:32;;;;;;;8.65;4.47;;;;;;;17.29;81.31;100123.53;5053521;28;20069;-77
2022/06/16 06:27:02;;;;;;;11.35;4.38;;;;;;;17.35;81.60;100122.19;5054037;28;20552;-77
2022/06/16 06:29:29;;;;;;;8.63;4.47;;;;;;;17.28;80.51;100121.81;5053035;28;20048;-76
2022/06/16 06:31:57;;;;;;;8.73;4.50;;;;;;;17.47;78.86;100123.06;5053158;28;20496;-77
2022/06/16 06:34:25;;;;;;;9.80;4.68;;;;;;;17.47;79.54;100131.25;5052999;28;20106;-77
2022/06/16 06:36:52;;;;;;;8.18;3.60;;;;;;;17.56;78.50;100119.59;5052888;28;20056;-77
2022/06/16 06:39:20;;;;;;;7.68;3.85;;;;;;;17.66;77.11;100122.44;5052346;28;20043;-77
2022/06/16 06:41:49;;;;;;;9.43;3.90;;;;;;;17.56;76.79;100122.31;5072750;28;20048;-77
2022/06/16 06:44:16;;;;;;;9.25;3.88;;;;;;;17.64;78.08;100125.28;5072785;28;20048;-77
2022/06/16 06:46:44;;;;;;;9.55;3.65;;;;;;;17.77;77.59;100118.84;5072995;28;20057;-77
2022/06/16 06:49:12;;;;;;;8.63;3.47;;;;;;;17.85;76.67;100116.34;5073026;28;20092;-77
2022/06/16 06:51:39;;;;;;;7.95;3.45;;;;;;;17.83;76.14;100110.13;5072812;28;20116;-77
2022/06/16 06:54:07;;;;;;;6.78;3.58;;;;;;;17.98;76.29;100107.09;5072354;28;20049;-78
2022/06/16 06:56:35;;;;;;;8.98;4.15;;;;;;;18.01;75.82;100112.34;5072678;28;20069;-77
2022/06/16 06:59:07;;;;;;;12.23;3.42;;;;;;;18.15;74.93;100113.94;5068298;28;20093;-77
2022/06/16 07:01:35;;;;;;;9.20;3.95;;;;;;;18.18;75.00;100114.56;5053573;28;20052;-77
2022/06/16 07:04:03;;;;;;;8.73;3.90;;;;;;;18.13;75.37;100108.56;5052490;28;20056;-77
2022/06/16 07:06:31;;;;;;;7.50;3.60;;;;;;;18.26;75.16;100115.75;5052335;28;20068;-77
2022/06/16 07:08:58;;;;;;;7.95;4.00;;;;;;;18.07;74.31;100115.44;5053566;27;20115;-77
2022/06/16 07:11:26;;;;;;;7.00;3.70;;;;;;;18.26;74.59;100104.81;5052455;28;20045;-77
2022/06/16 07:13:54;;;;;;;9.02;3.55;;;;;;;18.40;73.54;100107.25;5052457;28;20045;-77
2022/06/16 07:16:22;;;;;;;7.90;3.83;;;;;;;18.38;74.51;100101.03;5051933;28;20090;-77
2022/06/16 07:18:50;;;;;;;8.75;4.40;;;;;;;18.20;75.10;100104.34;5052245;28;20401;-77
2022/06/16 07:21:18;;;;;;;7.38;3.80;;;;;;;18.17;74.84;100110.09;5052299;28;20044;-77
2022/06/16 07:23:45;;;;;;;8.38;3.30;;;;;;;18.26;73.65;100102.94;5051791;28;20045;-77
2022/06/16 07:26:13;;;;;;;7.20;3.38;;;;;;;18.32;72.63;100098.84;5052301;28;20564;-75
2022/06/16 07:28:40;;;;;;;9.30;4.00;;;;;;;18.34;72.72;100097.69;5052292;28;20417;-77
2022/06/16 07:31:07;;;;;;;9.95;3.83;;;;;;;18.19;73.00;100099.88;5052164;27;20094;-77
2022/06/16 07:33:37;;;;;;;9.40;4.10;;;;;;;18.17;73.41;100098.25;5051994;28;20097;-76
2022/06/16 07:36:05;;;;;;;9.68;3.90;;;;;;;18.30;72.86;100095.38;5051975;28;20045;-76
2022/06/16 07:38:32;;;;;;;12.02;4.50;;;;;;;18.44;72.66;100092.31;5051524;28;20056;-77
2022/06/16 07:43:41;;;;;;;6.88;3.40;;;;;;;18.36;72.83;100092.09;5072396;28;20044;-76
2022/06/16 07:46:09;;;;;;;6.97;3.70;;;;;;;18.49;71.42;100092.78;5071896;28;20465;-77
2022/06/16 07:48:38;;;;;;;8.43;3.38;;;;;;;18.81;69.02;100096.50;5071790;27;20045;-76
2022/06/16 07:51:06;;;;;;;6.72;3.20;;;;;;;18.89;67.36;100088.47;5071249;28;20048;-77
2022/06/16 07:53:33;;;;;;;5.65;3.08;;;;;;;19.00;67.15;100081.22;5071657;28;20487;-77
2022/06/16 07:56:01;;;;;;;8.10;3.75;;;;;;;19.16;67.39;100088.94;5071807;28;20498;-77
2022/06/16 07:58:31;;;;;;;7.97;3.30;;;;;;;19.29;67.93;100083.22;5071698;28;20411;-77
2022/06/16 08:00:59;;;;;;;6.60;3.20;;;;;;;19.27;68.04;100083.34;5071435;28;20052;-77
2022/06/16 08:03:28;;;;;;;6.32;2.90;;;;;;;19.04;65.91;100083.56;5071467;28;20043;-77
2022/06/16 08:05:58;;;;;;;7.55;3.25;;;;;;;18.89;66.49;100085.72;5071295;28;20045;-77
2022/06/16 08:08:28;;;;;;;7.05;3.00;;;;;;;19.05;65.97;100078.94;5071604;28;20105;-77
2022/06/16 08:10:55;;;;;;;6.28;3.10;;;;;;;19.29;65.58;100075.88;5071569;28;20044;-77
2022/06/16 08:13:26;;;;;;;7.75;3.15;;;;;;;19.47;65.94;100077.97;5071389;28;20399;-77
2022/06/16 08:15:54;;;;;;;7.20;3.33;;;;;;;19.39;66.05;100078.66;5071754;28;20055;-76
2022/06/16 08:18:24;;;;;;;11.50;3.60;;;;;;;19.45;65.20;100080.00;5071309;28;20047;-77
2022/06/16 08:20:52;;;;;;;6.15;3.20;;;;;;;19.37;65.44;100081.53;5070881;28;20380;-76
2022/06/16 08:23:22;;;;;;;8.68;3.33;;;;;;;19.41;65.23;100076.66;5071263;28;20105;-77
2022/06/16 08:25:50;;;;;;;7.25;3.40;;;;;;;19.48;64.21;100076.97;5071234;28;20055;-77
2022/06/16 08:28:19;;;;;;;7.63;3.47;;;;;;;19.50;64.38;100074.97;5070128;27;20041;-76
2022/06/16 08:30:47;;;;;;;7.28;3.30;;;;;;;19.36;65.11;100077.03;5071109;28;20041;-77
2022/06/16 08:33:16;;;;;;;7.00;3.45;;;;;;;19.46;64.87;100071.63;5071156;28;20064;-77
2022/06/16 08:35:45;;;;;;;6.28;3.20;;;;;;;19.35;63.81;100071.72;5070585;28;20159;-76
2022/06/16 08:38:13;;;;;;;8.43;3.30;;;;;;;19.16;61.56;100067.88;5070948;28;20044;-77
2022/06/16 08:40:45;;;;;;;8.88;3.20;;;;;;;19.13;63.55;100070.91;5064679;27;20403;-76
2022/06/16 08:43:24;;;;;;;6.50;2.97;;;;;;;19.19;61.19;100073.13;5071360;28;20052;-77
2022/06/16 08:45:55;;;;;;;6.68;2.72;;;;;;;19.33;59.92;100065.53;5071539;28;20048;-77
2022/06/16 08:48:29;;;;;;;4.93;2.90;;;;;;;19.27;60.46;100066.06;5071912;28;20044;-77
2022/06/16 08:51:00;;;;;;;3.97;2.70;;;;;;;19.27;60.82;100061.44;5071659;28;20041;-77
2022/06/16 08:53:50;;;;;;;6.70;2.90;;;;;;;19.23;61.57;100063.63;5072217;28;20440;-77
2022/06/16 08:56:25;;;;;;;5.95;3.10;;;;;;;19.61;62.19;100054.81;5070665;28;20052;-77
2022/06/16 08:58:58;;;;;;;7.95;3.38;;;;;;;19.68;62.27;100058.72;5068933;28;20048;-77
2022/06/16 09:01:32;;;;;;;8.63;3.33;;;;;;;19.62;62.01;100059.28;5052157;28;20052;-77
2022/06/16 09:04:03;;;;;;;8.30;3.28;;;;;;;19.89;61.49;100053.13;5050432;28;20045;-78
2022/06/16 09:06:40;;;;;;;8.43;4.28;;;;;;;20.01;61.67;100056.66;5050768;28;20431;-77
2022/06/16 09:09:16;;;;;;;7.80;2.90;;;;;;;19.58;61.66;100063.28;5051056;28;20053;-77
2022/06/16 09:12:11;;;;;;;7.53;3.10;;;;;;;19.55;62.33;100050.75;5052031;28;20037;-78
2022/06/16 09:17:39;;;;;;;8.23;3.20;;;;;;;19.27;62.25;100058.72;5051845;28;20403;-78
2022/06/16 09:20:13;;;;;;;6.93;3.08;;;;;;;19.31;61.84;100062.06;5051794;28;20048;-78
2022/06/16 09:22:51;;;;;;;6.57;3.10;;;;;;;19.24;61.46;100064.47;5052322;28;20403;-77
2022/06/16 09:25:36;;;;;;;7.40;3.30;;;;;;;19.20;61.83;100060.28;5050280;28;20052;-77
2022/06/16 09:28:12;;;;;;;7.00;3.30;;;;;;;19.44;61.96;100056.34;5052106;28;20060;-77
2022/06/16 09:30:41;;;;;;;7.25;2.97;;;;;;;19.92;61.45;100058.38;5050717;28;20048;-77
2022/06/16 09:33:12;;;;;;;7.38;3.20;;;;;;;20.01;61.30;100059.41;5049754;28;20571;-78
2022/06/16 09:35:43;;;;;;;5.00;2.90;;;;;;;20.19;60.76;100053.19;5050968;28;20049;-77
2022/06/16 09:38:15;;;;;;;5.95;3.20;;;;;;;20.32;60.73;100048.28;5051712;28;20487;-78
2022/06/16 09:40:45;;;;;;;6.63;3.20;;;;;;;20.42;61.16;100040.03;5061119;28;20063;-77
2022/06/16 09:43:17;;;;;;;6.38;3.38;;;;;;;20.34;61.57;100046.25;5070195;28;20045;-78
2022/06/16 09:45:50;;;;;;;5.93;3.20;;;;;;;20.37;61.36;100048.69;5070974;28;20490;-77
2022/06/16 09:48:21;;;;;;;6.63;3.30;;;;;;;20.45;61.33;100045.25;5070856;28;20055;-77
2022/06/16 09:50:52;;;;;;;6.53;3.25;;;;;;;20.27;60.70;100045.09;5071483;28;20490;-77
2022/06/16 09:53:27;;;;;;;7.43;2.88;;;;;;;20.33;59.22;100049.16;5071703;28;20097;-78
2022/06/16 09:55:59;;;;;;;6.05;3.13;;;;;;;20.42;61.17;100051.03;5070020;28;20052;-78
2022/06/16 09:58:31;;;;;;;8.60;2.90;;;;;;;20.60;61.21;100045.66;5070369;28;20045;-77
2022/06/16 10:01:01;;;;;;;6.03;3.00;;;;;;;20.19;60.32;100039.47;5050736;28;20471;-78
2022/06/16 10:03:33;;;;;;;6.63;3.22;;;;;;;19.90;60.25;100046.69;5049633;28;20078;-78
2022/06/16 10:06:18;;;;;;;6.30;3.10;;;;;;;19.89;60.83;100044.91;5049988;28;20049;-77
2022/06/16 10:08:56;;;;;;;9.30;2.97;;;;;;;20.04;59.24;100039.91;5051514;28;20400;-77
2022/06/16 10:11:35;;;;;;;8.20;3.05;;;;;;;20.36;58.53;100035.16;5051477;27;20041;-77
2022/06/16 10:14:12;;;;;;;5.43;2.95;;;;;;;20.38;57.17;100039.47;5051411;28;20488;-78
2022/06/16 10:16:46;;;;;;;6.72;3.00;;;;;;;20.52;58.38;100040.03;5051564;27;20060;-77
2022/06/16 10:19:13;;;;;;;9.02;3.25;;;;;;;20.40;59.03;100034.72;5049794;28;20053;-78
2022/06/16 10:21:41;;;;;;;6.20;3.05;;;;;;;20.34;59.25;100035.28;5049563;28;20054;-77
2022/06/16 10:24:09;;;;;;;6.57;2.97;;;;;;;20.31;59.09;100034.72;5049609;28;20045;-77
2022/06/16 10:26:36;;;;;;;6.45;3.13;;;;;;;20.11;58.78;100037.44;5049748;28;20045;-77
2022/06/16 10:29:14;;;;;;;5.13;2.97;;;;;;;20.17;57.99;100028.66;5049644;28;20052;-77
2022/06/16 10:31:45;;;;;;;6.85;3.28;;;;;;;20.10;58.58;100035.72;5050053;28;20052;-76
2022/06/16 10:34:30;;;;;;;7.68;3.22;;;;;;;20.20;57.64;100022.03;5050456;28;20045;-77
2022/06/16 10:37:03;;;;;;;6.40;2.83;;;;;;;20.12;58.05;100023.63;5050304;28;20093;-77
2022/06/16 10:39:38;;;;;;;5.47;3.10;;;;;;;20.01;57.90;100025.63;5051933;28;20045;-77
2022/06/16 10:42:14;;;;;;;7.65;3.00;;;;;;;20.14;58.58;100025.34;5071060;28;20384;-77
2022/06/16 10:44:48;;;;;;;6.85;3.20;;;;;;;20.16;58.37;100024.16;5071082;28;20385;-77
2022/06/16 10:47:21;;;;;;;6.50;3.10;;;;;;;20.24;58.34;100027.06;5069190;28;20045;-77
2022/06/16 10:49:49;;;;;;;6.68;3.00;;;;;;;20.17;57.96;100033.28;5069207;28;20067;-77
2022/06/16 10:52:25;;;;;;;5.28;2.90;;;;;;;19.99;56.50;100028.53;5070992;27;20380;-75
2022/06/16 10:54:57;;;;;;;5.80;2.70;;;;;;;20.04;58.38;100028.94;5074077;28;20434;-78
2022/06/16 10:57:27;;;;;;;7.00;2.70;;;;;;;20.38;57.75;100033.97;5074564;28;20045;-75
2022/06/16 11:00:05;;;;;;;5.50;2.90;;;;;;;20.66;56.61;100025.00;5060565;28;20045;-76
2022/06/16 11:02:35;;;;;;;6.07;2.63;;;;;;;20.74;56.28;100024.25;5052861;28;20044;-76
2022/06/16 11:05:06;;;;;;;4.20;2.50;;;;;;;20.90;56.88;100026.41;5052354;28;20049;-75
2022/06/16 11:07:37;;;;;;;4.90;2.53;;;;;;;21.05;55.61;100027.66;5053651;27;20057;-75
2022/06/16 11:10:09;;;;;;;5.25;2.50;;;;;;;20.97;53.68;100033.03;5054094;28;20056;-76
2022/06/16 11:12:38;;;;;;;7.68;2.60;;;;;;;20.90;53.32;100026.41;5052734;28;20065;-75
2022/06/16 11:15:18;;;;;;;6.72;2.50;;;;;;;20.95;53.66;100021.31;5051925;28;20049;-76
2022/06/16 11:17:50;;;;;;;6.13;2.72;;;;;;;21.15;55.10;100029.50;5052971;27;20052;-77
2022/06/16 11:20:25;;;;;;;4.78;2.50;;;;;;;21.32;56.23;100027.84;5053058;28;20052;-78
2022/06/16 11:22:53;;;;;;;6.82;2.42;;;;;;;21.17;55.30;100022.84;5053281;28;20045;-77
2022/06/16 11:25:24;;;;;;;13.02;2.90;;;;;;;20.97;52.80;100024.78;5052215;28;20045;-76
2022/06/16 11:27:57;;;;;;;6.53;3.17;;;;;;;20.81;54.34;100020.81;5052446;28;20049;-78
2022/06/16 11:30:36;;;;;;;4.88;2.50;;;;;;;20.68;53.47;100022.97;5052692;28;20045;-77
2022/06/16 11:33:05;;;;;;;7.05;2.60;;;;;;;20.62;54.43;100032.66;5052666;28;20052;-77
2022/06/16 11:35:41;;;;;;;5.68;2.70;;;;;;;20.75;54.56;100028.72;5052156;27;20049;-77
2022/06/16 11:38:13;;;;;;;3.73;2.50;;;;;;;20.92;52.76;100018.88;5053649;28;20045;-77
2022/06/16 11:40:45;;;;;;;6.95;2.60;;;;;;;21.26;52.51;100018.31;5062873;28;20303;-76
2022/06/16 11:43:51;;;;;;;5.55;2.63;;;;;;;21.61;51.84;100015.81;5071944;28;20053;-77
2022/06/16 11:46:24;;;;;;;7.65;2.78;;;;;;;21.85;52.96;100007.03;4991117;28;20046;-77
2022/06/16 11:49:02;;;;;;;4.50;2.50;;;;;;;22.11;53.75;100007.09;4992055;28;20050;-77
2022/06/16 11:51:35;;;;;;;5.93;2.72;;;;;;;22.24;54.39;100005.84;4992132;28;20060;-77
2022/06/16 11:54:11;;;;;;;4.78;2.50;;;;;;;21.94;52.87;99992.34;4990575;28;20058;-78
2022/06/16 11:56:43;;;;;;;5.03;2.50;;;;;;;21.40;52.01;99994.97;4990814;28;20058;-77
2022/06/16 11:59:37;;;;;;;5.55;2.53;;;;;;;21.35;53.12;99998.16;4990293;28;20054;-77
2022/06/16 12:02:26;;;;;;;6.25;2.67;;;;;;;21.33;53.01;99993.88;4990395;28;20054;-77